createdAt,value
2018-03-25T00:09:55.136Z,1.92
2018-03-25T00:19:52.853Z,1.82
2018-03-25T00:29:50.243Z,1.72
2018-03-25T00:39:46.030Z,1.63
2018-03-25T00:49:43.148Z,1.72
2018-03-25T00:59:40.539Z,1.72
2018-03-25T01:09:37.519Z,1.63
2018-03-25T01:19:35.005Z,1.63
2018-03-25T01:29:29.094Z,1.53
2018-03-25T01:39:24.918Z,1.53
2018-03-25T01:49:20.509Z,1.43
2018-03-25T01:59:17.295Z,1.53
2018-03-25T02:09:11.989Z,1.43
2018-03-25T02:19:07.686Z,1.43
2018-03-25T02:29:06.530Z,1.43
2018-03-25T02:39:03.926Z,1.33
2018-03-25T02:48:58.693Z,1.23
2018-03-25T02:58:56.382Z,1.14
2018-03-25T03:08:54.667Z,1.14
2018-03-25T03:18:49.812Z,1.24
2018-03-25T03:28:46.795Z,1.24
2018-03-25T03:38:42.766Z,1.33
2018-03-25T03:48:39.377Z,1.14
2018-03-25T03:58:34.682Z,1.14
2018-03-25T04:08:31.791Z,1.14
2018-03-25T04:18:28.488Z,1.14
2018-03-25T04:28:23.977Z,1.14
2018-03-25T04:38:20.773Z,1.04
2018-03-25T04:48:17.758Z,1.14
2018-03-25T04:58:13.289Z,1.14
2018-03-25T05:08:10.382Z,1.14
2018-03-25T05:18:07.807Z,1.04
2018-03-25T05:28:01.770Z,1.14
2018-03-25T05:37:52.682Z,1.14
2018-03-25T05:47:49.405Z,1.14
2018-03-25T05:57:47.630Z,1.33
2018-03-25T06:07:45.171Z,1.23
2018-03-25T06:17:41.780Z,1.23
2018-03-25T06:27:36.224Z,1.33
2018-03-25T06:37:32.446Z,1.43
2018-03-25T06:47:30.091Z,1.43
2018-03-25T06:57:23.695Z,1.53
2018-03-25T07:07:21.519Z,1.72
2018-03-25T07:17:19.977Z,1.63
2018-03-25T07:27:11.067Z,1.63
2018-03-25T07:37:04.870Z,1.72
2018-03-25T07:46:59.944Z,1.92
2018-03-25T07:56:56.369Z,2.21
2018-03-25T08:06:47.058Z,2.21
2018-03-25T08:16:44.546Z,2.12
2018-03-25T08:26:40.676Z,2.21
2018-03-25T08:36:31.970Z,2.31
2018-03-25T08:46:29.787Z,2.41
2018-03-25T08:56:26.080Z,2.60
2018-03-25T09:06:21.428Z,2.51
2018-03-25T09:16:17.131Z,2.70
2018-03-25T09:26:12.808Z,2.90
2018-03-25T09:36:05.448Z,2.70
2018-03-25T09:45:58.079Z,2.70
2018-03-25T09:55:52.020Z,2.90
2018-03-25T10:05:47.206Z,3.00
2018-03-25T10:15:40.588Z,3.09
2018-03-25T10:25:35.932Z,3.39
2018-03-25T10:35:30.220Z,3.58
2018-03-25T10:45:27.774Z,3.68
2018-03-25T10:55:24.389Z,3.58
2018-03-25T11:05:20.349Z,3.78
2018-03-25T11:15:16.559Z,3.87
2018-03-25T11:25:14.681Z,3.78
2018-03-25T11:35:11.591Z,3.87
2018-03-25T11:45:09.405Z,3.97
2018-03-25T11:55:06.399Z,4.36
2018-03-25T12:05:01.181Z,4.76
2018-03-25T12:14:57.467Z,4.95
2018-03-25T12:24:47.016Z,4.85
2018-03-25T12:34:39.728Z,4.95
2018-03-25T12:44:35.352Z,5.05
2018-03-25T12:54:31.721Z,4.66
2018-03-25T13:04:27.391Z,4.85
2018-03-25T13:14:24.536Z,4.76
2018-03-25T13:24:21.101Z,4.37
2018-03-25T13:34:16.772Z,4.56
2018-03-25T13:44:14.251Z,4.36
2018-03-25T13:54:12.475Z,4.36
2018-03-25T14:04:08.736Z,4.66
2018-03-25T14:14:02.251Z,4.66
2018-03-25T14:23:58.953Z,4.27
2018-03-25T14:33:51.352Z,4.56
2018-03-25T14:43:48.044Z,4.56
2018-03-25T14:53:44.761Z,4.27
2018-03-25T15:03:39.095Z,4.27
2018-03-25T15:13:35.676Z,4.17
2018-03-25T15:23:32.027Z,4.07
2018-03-25T15:33:27.465Z,4.07
2018-03-25T15:43:21.661Z,4.07
2018-03-25T15:53:17.504Z,3.97
2018-03-25T16:03:12.495Z,3.88
2018-03-25T16:13:08.652Z,3.87
2018-03-25T16:23:06.412Z,3.88
2018-03-25T16:33:02.669Z,3.78
2018-03-25T16:42:59.800Z,3.78
2018-03-25T16:52:57.693Z,3.68
2018-03-25T17:02:50.438Z,3.68
2018-03-25T17:12:45.206Z,3.58
2018-03-25T17:22:42.038Z,3.48
2018-03-25T17:32:39.620Z,3.48
2018-03-25T17:42:35.743Z,3.48
2018-03-25T17:52:33.463Z,3.48
2018-03-25T18:02:30.969Z,3.39
2018-03-25T18:12:28.285Z,3.39
2018-03-25T18:22:22.092Z,3.39
2018-03-25T18:32:19.655Z,3.29
2018-03-25T18:42:17.555Z,3.19
2018-03-25T18:52:15.325Z,3.09
2018-03-25T19:02:08.244Z,3.00
2018-03-25T19:12:01.607Z,3.00
2018-03-25T19:21:57.895Z,3.09
2018-03-25T19:31:55.268Z,3.00
2018-03-25T19:41:51.218Z,3.00
2018-03-25T19:51:45.824Z,2.90
2018-03-25T20:01:39.855Z,2.80
2018-03-25T20:11:32.244Z,2.70
2018-03-25T20:21:27.590Z,2.70
2018-03-25T20:31:21.622Z,2.70
2018-03-25T20:41:19.808Z,2.70
2018-03-25T20:51:16.773Z,2.51
2018-03-25T21:01:10.947Z,2.51
2018-03-25T21:11:09.977Z,2.70
2018-03-25T21:21:03.217Z,2.51
2018-03-25T21:30:56.357Z,2.60
2018-03-25T21:40:53.709Z,2.51
2018-03-25T21:50:50.706Z,2.51
2018-03-25T22:00:48.887Z,2.51
2018-03-25T22:10:47.130Z,2.51
2018-03-25T22:20:43.457Z,2.41
2018-03-25T22:30:40.880Z,2.41
2018-03-25T22:40:39.309Z,2.21
2018-03-25T22:50:34.983Z,2.41
2018-03-25T23:00:32.370Z,2.31
2018-03-25T23:10:30.601Z,2.31
2018-03-25T23:20:27.809Z,2.21
2018-03-25T23:30:23.501Z,2.31
2018-03-25T23:40:18.667Z,2.31
2018-03-25T23:50:16.420Z,2.21
